createdAt,value
2018-12-17T00:00:14.398Z,1002.73
2018-12-17T00:01:14.317Z,1002.70
2018-12-17T00:02:14.263Z,1002.68
2018-12-17T00:03:14.200Z,1002.69
2018-12-17T00:04:14.144Z,1002.70
2018-12-17T00:05:14.109Z,1002.71
2018-12-17T00:06:14.030Z,1002.68
2018-12-17T00:07:13.980Z,1002.72
2018-12-17T00:08:13.924Z,1002.69
2018-12-17T00:09:13.867Z,1002.69
2018-12-17T00:10:13.840Z,1002.71
2018-12-17T00:11:13.745Z,1002.68
2018-12-17T00:12:16.726Z,1002.66
2018-12-17T00:13:13.630Z,1002.67
2018-12-17T00:14:13.575Z,1002.60
2018-12-17T00:15:13.539Z,1002.62
2018-12-17T00:16:13.460Z,1002.60
2018-12-17T00:17:13.398Z,1002.59
2018-12-17T00:18:13.345Z,1002.52
2018-12-17T00:19:13.290Z,1002.51
2018-12-17T00:20:13.276Z,1002.47
2018-12-17T00:21:13.175Z,1002.52
2018-12-17T00:22:13.116Z,1002.48
2018-12-17T00:23:13.060Z,1002.54
2018-12-17T00:24:13.009Z,1002.49
2018-12-17T00:25:12.969Z,1002.50
2018-12-17T00:26:12.890Z,1002.47
2018-12-17T00:27:12.830Z,1002.46
2018-12-17T00:28:12.780Z,1002.48
2018-12-17T00:29:12.722Z,1002.48
2018-12-17T00:30:12.684Z,1002.52
2018-12-17T00:31:12.601Z,1002.54
2018-12-17T00:32:12.547Z,1002.57
2018-12-17T00:33:12.494Z,1002.59
2018-12-17T00:34:12.434Z,1002.59
2018-12-17T00:35:12.399Z,1002.58
2018-12-17T00:36:12.321Z,1002.62
2018-12-17T00:37:12.274Z,1002.62
2018-12-17T00:38:12.205Z,1002.60
2018-12-17T00:39:12.151Z,1002.64
2018-12-17T00:40:12.090Z,1002.67
2018-12-17T00:41:12.059Z,1002.66
2018-12-17T00:42:11.979Z,1002.63
2018-12-17T00:43:11.922Z,1002.61
2018-12-17T00:44:11.861Z,1002.61
2018-12-17T00:45:11.805Z,1002.60
2018-12-17T00:46:11.774Z,1002.57
2018-12-17T00:47:11.691Z,1002.58
2018-12-17T00:48:11.635Z,1002.61
2018-12-17T00:49:11.578Z,1002.56
2018-12-17T00:50:11.532Z,1002.53
2018-12-17T00:51:11.491Z,1002.52
2018-12-17T00:52:11.406Z,1002.53
2018-12-17T00:53:11.350Z,1002.56
2018-12-17T00:54:11.291Z,1002.54
2018-12-17T00:55:11.235Z,1002.53
2018-12-17T00:56:11.204Z,1002.56
2018-12-17T00:57:11.122Z,1002.57
2018-12-17T00:58:15.078Z,1002.63
2018-12-17T00:59:11.006Z,1002.66
2018-12-17T01:00:10.950Z,1002.61
2018-12-17T01:01:10.899Z,1002.58
2018-12-17T01:02:10.835Z,1002.64
2018-12-17T01:03:10.780Z,1002.63
2018-12-17T01:04:10.721Z,1002.67
2018-12-17T01:05:10.662Z,1002.65
2018-12-17T01:06:10.630Z,1002.67
2018-12-17T01:07:10.558Z,1002.69
2018-12-17T01:08:10.495Z,1002.66
2018-12-17T01:09:10.435Z,1002.73
2018-12-17T01:10:10.381Z,1002.71
2018-12-17T01:11:10.345Z,1002.75
2018-12-17T01:12:10.270Z,1002.75
2018-12-17T01:13:10.206Z,1002.77
2018-12-17T01:14:10.155Z,1002.79
2018-12-17T01:15:10.095Z,1002.81
2018-12-17T01:16:10.060Z,1002.80
2018-12-17T01:17:09.989Z,1002.84
2018-12-17T01:18:09.923Z,1002.85
2018-12-17T01:19:09.866Z,1002.88
2018-12-17T01:20:09.811Z,1002.85
2018-12-17T01:21:09.773Z,1002.86
2018-12-17T01:22:09.701Z,1002.89
2018-12-17T01:23:09.642Z,1002.89
2018-12-17T01:24:09.580Z,1002.90
2018-12-17T01:25:09.525Z,1002.92
2018-12-17T01:26:09.492Z,1002.95
2018-12-17T01:27:09.400Z,1002.93
2018-12-17T01:28:09.348Z,1002.98
2018-12-17T01:29:09.300Z,1002.99
2018-12-17T01:30:09.237Z,1003.02
2018-12-17T01:31:09.214Z,1003.04
2018-12-17T01:32:09.125Z,1003.04
2018-12-17T01:33:09.066Z,1003.05
2018-12-17T01:34:09.010Z,1003.06
2018-12-17T01:35:08.952Z,1003.06
2018-12-17T01:36:08.921Z,1003.09
2018-12-17T01:37:08.836Z,1003.06
2018-12-17T01:38:08.799Z,1003.11
2018-12-17T01:39:08.728Z,1003.11
2018-12-17T01:40:08.667Z,1003.08
2018-12-17T01:41:08.636Z,1003.09
2018-12-17T01:42:08.551Z,1003.07
2018-12-17T01:43:08.497Z,1003.10
2018-12-17T01:44:08.441Z,1003.14
2018-12-17T01:45:08.379Z,1003.11
2018-12-17T01:46:08.354Z,1003.10
2018-12-17T01:47:08.269Z,1003.09
2018-12-17T01:48:08.210Z,1003.09
2018-12-17T01:49:08.155Z,1003.12
2018-12-17T01:50:08.100Z,1003.07
2018-12-17T01:51:08.075Z,1003.08
2018-12-17T01:52:08.009Z,1003.10
2018-12-17T01:53:07.926Z,1003.10
2018-12-17T01:54:07.872Z,1003.08
2018-12-17T01:55:07.814Z,1003.06
2018-12-17T01:56:07.756Z,1003.03
2018-12-17T01:57:07.725Z,1003.07
2018-12-17T01:58:07.651Z,1003.08
2018-12-17T01:59:07.587Z,1003.07
2018-12-17T02:00:07.531Z,1003.08
2018-12-17T02:01:07.472Z,1003.08
2018-12-17T02:02:07.439Z,1003.06
2018-12-17T02:03:07.356Z,1003.11
2018-12-17T02:04:07.297Z,1003.08
2018-12-17T02:05:07.240Z,1003.10
2018-12-17T02:06:07.191Z,1003.08
2018-12-17T02:07:07.155Z,1003.12
2018-12-17T02:08:07.071Z,1003.11
2018-12-17T02:09:07.014Z,1003.11
2018-12-17T02:10:06.963Z,1003.06
2018-12-17T02:11:06.900Z,1003.05
2018-12-17T02:12:06.868Z,1003.07
2018-12-17T02:13:06.802Z,1003.10
2018-12-17T02:14:06.726Z,1003.07
2018-12-17T02:15:06.683Z,1003.10
2018-12-17T02:16:06.615Z,1003.08
2018-12-17T02:17:06.588Z,1003.05
2018-12-17T02:18:06.506Z,1003.03
2018-12-17T02:19:06.449Z,1003.05
2018-12-17T02:20:06.393Z,1003.02
2018-12-17T02:21:06.334Z,1003.03
2018-12-17T02:22:06.299Z,1003.08
2018-12-17T02:23:06.219Z,1003.09
2018-12-17T02:24:06.159Z,1003.09
2018-12-17T02:25:06.104Z,1003.09
2018-12-17T02:26:06.057Z,1003.09
2018-12-17T02:27:06.013Z,1003.13
2018-12-17T02:28:05.935Z,1003.14
2018-12-17T02:29:05.881Z,1003.15
2018-12-17T02:30:05.819Z,1003.14
2018-12-17T02:31:05.766Z,1003.13
2018-12-17T02:32:05.736Z,1003.14
2018-12-17T02:33:05.652Z,1003.14
2018-12-17T02:34:05.590Z,1003.14
2018-12-17T02:35:05.536Z,1003.15
2018-12-17T02:36:05.481Z,1003.13
2018-12-17T02:37:05.443Z,1003.11
2018-12-17T02:38:05.365Z,1003.14
2018-12-17T02:39:05.310Z,1003.15
2018-12-17T02:40:05.245Z,1003.19
2018-12-17T02:41:05.193Z,1003.18
2018-12-17T02:42:05.159Z,1003.18
2018-12-17T02:43:05.079Z,1003.20
2018-12-17T02:44:05.028Z,1003.17
2018-12-17T02:45:04.964Z,1003.19
2018-12-17T02:46:04.908Z,1003.21
2018-12-17T02:47:04.876Z,1003.18
2018-12-17T02:48:04.793Z,1003.20
2018-12-17T02:49:04.738Z,1003.14
2018-12-17T02:50:04.678Z,1003.17
2018-12-17T02:51:04.624Z,1003.18
2018-12-17T02:52:04.587Z,1003.16
2018-12-17T02:53:04.510Z,1003.19
2018-12-17T02:54:04.449Z,1003.22
2018-12-17T02:55:04.471Z,1003.23
2018-12-17T02:56:04.338Z,1003.24
2018-12-17T02:57:04.302Z,1003.25
2018-12-17T02:58:04.223Z,1003.25
2018-12-17T02:59:04.169Z,1003.25
2018-12-17T03:00:04.109Z,1003.27
2018-12-17T03:01:04.053Z,1003.26
2018-12-17T03:02:04.017Z,1003.26
2018-12-17T03:03:03.943Z,1003.30
2018-12-17T03:04:03.883Z,1003.29
2018-12-17T03:05:03.857Z,1003.31
2018-12-17T03:06:03.769Z,1003.27
2018-12-17T03:07:03.737Z,1003.29
2018-12-17T03:08:03.656Z,1003.30
2018-12-17T03:09:03.593Z,1003.26
2018-12-17T03:10:03.538Z,1003.24
2018-12-17T03:11:03.482Z,1003.23
2018-12-17T03:12:03.471Z,1003.25
2018-12-17T03:13:03.368Z,1003.23
2018-12-17T03:14:03.312Z,1003.26
2018-12-17T03:15:03.257Z,1003.28
2018-12-17T03:16:03.197Z,1003.27
2018-12-17T03:17:03.139Z,1003.28
2018-12-17T03:18:03.106Z,1003.25
2018-12-17T03:19:03.027Z,1003.27
2018-12-17T03:20:02.977Z,1003.28
2018-12-17T03:21:02.913Z,1003.32
2018-12-17T03:22:02.859Z,1003.37
2018-12-17T03:23:02.822Z,1003.34
2018-12-17T03:24:02.742Z,1003.38
2018-12-17T03:25:02.687Z,1003.37
2018-12-17T03:26:02.628Z,1003.37
2018-12-17T03:27:02.574Z,1003.40
2018-12-17T03:28:02.537Z,1003.40
2018-12-17T03:29:02.461Z,1003.35
2018-12-17T03:30:02.403Z,1003.37
2018-12-17T03:31:02.344Z,1003.41
2018-12-17T03:32:02.285Z,1003.41
2018-12-17T03:33:02.257Z,1003.36
2018-12-17T03:34:02.173Z,1003.39
2018-12-17T03:35:02.119Z,1003.39
2018-12-17T03:36:02.059Z,1003.41
2018-12-17T03:37:02.004Z,1003.44
2018-12-17T03:38:01.970Z,1003.40
2018-12-17T03:39:01.888Z,1003.42
2018-12-17T03:40:01.834Z,1003.43
2018-12-17T03:41:01.777Z,1003.45
2018-12-17T03:42:01.721Z,1003.46
2018-12-17T03:43:01.687Z,1003.47
2018-12-17T03:44:01.603Z,1003.45
2018-12-17T03:45:01.547Z,1003.48
2018-12-17T03:46:01.489Z,1003.45
2018-12-17T03:47:01.433Z,1003.42
2018-12-17T03:48:01.398Z,1003.49
2018-12-17T03:49:01.317Z,1003.53
2018-12-17T03:50:01.262Z,1003.48
2018-12-17T03:51:01.204Z,1003.52
2018-12-17T03:52:01.147Z,1003.55
2018-12-17T03:53:01.116Z,1003.51
2018-12-17T03:54:01.032Z,1003.53
2018-12-17T03:55:00.979Z,1003.51
2018-12-17T03:56:00.923Z,1003.54
2018-12-17T03:57:00.871Z,1003.56
2018-12-17T03:58:00.828Z,1003.54
2018-12-17T03:59:00.748Z,1003.51
2018-12-17T04:00:00.691Z,1003.44
2018-12-17T04:01:00.634Z,1003.39
2018-12-17T04:02:00.577Z,1003.43
2018-12-17T04:03:00.547Z,1003.45
2018-12-17T04:04:00.469Z,1003.39
2018-12-17T04:05:00.408Z,1003.41
2018-12-17T04:06:00.353Z,1003.36
2018-12-17T04:07:00.292Z,1003.40
2018-12-17T04:08:00.260Z,1003.42
2018-12-17T04:09:00.177Z,1003.42
2018-12-17T04:10:00.122Z,1003.41
2018-12-17T04:11:00.070Z,1003.42
2018-12-17T04:12:00.007Z,1003.40
2018-12-17T04:12:59.976Z,1003.43
2018-12-17T04:13:59.894Z,1003.45
2018-12-17T04:14:59.853Z,1003.47
2018-12-17T04:15:59.781Z,1003.52
2018-12-17T04:16:59.718Z,1003.56
2018-12-17T04:17:59.708Z,1003.58
2018-12-17T04:18:59.611Z,1003.57
2018-12-17T04:19:59.551Z,1003.60
2018-12-17T04:20:59.499Z,1003.59
2018-12-17T04:21:59.438Z,1003.59
2018-12-17T04:22:59.385Z,1003.61
2018-12-17T04:23:59.353Z,1003.57
2018-12-17T04:24:59.270Z,1003.56
2018-12-17T04:25:59.213Z,1003.60
2018-12-17T04:26:59.157Z,1003.61
2018-12-17T04:27:59.097Z,1003.65
2018-12-17T04:29:06.569Z,1003.69
2018-12-17T04:29:58.982Z,1003.66
2018-12-17T04:30:58.934Z,1003.69
2018-12-17T04:31:58.867Z,1003.74
2018-12-17T04:32:58.813Z,1003.70
2018-12-17T04:33:58.779Z,1003.74
2018-12-17T04:34:58.707Z,1003.73
2018-12-17T04:35:58.642Z,1003.74
2018-12-17T04:36:58.586Z,1003.77
2018-12-17T04:37:58.526Z,1003.83
2018-12-17T04:38:58.496Z,1003.77
2018-12-17T04:39:58.412Z,1003.75
2018-12-17T04:40:58.387Z,1003.75
2018-12-17T04:41:58.304Z,1003.76
2018-12-17T04:42:58.246Z,1003.74
2018-12-17T04:43:58.213Z,1003.71
2018-12-17T04:44:58.126Z,1003.72
2018-12-17T04:45:58.070Z,1003.68
2018-12-17T04:46:58.018Z,1003.66
2018-12-17T04:47:57.957Z,1003.64
2018-12-17T04:48:57.927Z,1003.64
2018-12-17T04:49:57.845Z,1003.67
2018-12-17T04:50:57.791Z,1003.66
2018-12-17T04:51:57.730Z,1003.67
2018-12-17T04:52:57.673Z,1003.71
2018-12-17T04:53:57.641Z,1003.68
2018-12-17T04:54:57.557Z,1003.70
2018-12-17T04:55:57.505Z,1003.72
2018-12-17T04:56:57.446Z,1003.77
2018-12-17T04:57:57.398Z,1003.75
2018-12-17T04:58:57.357Z,1003.78
2018-12-17T04:59:57.282Z,1003.77
2018-12-17T05:00:57.220Z,1003.76
2018-12-17T05:01:57.160Z,1003.75
2018-12-17T05:02:57.105Z,1003.79
2018-12-17T05:03:57.074Z,1003.80
2018-12-17T05:04:56.992Z,1003.82
2018-12-17T05:05:56.937Z,1003.85
2018-12-17T05:06:56.876Z,1003.86
2018-12-17T05:07:56.820Z,1003.84
2018-12-17T05:08:56.784Z,1003.82
2018-12-17T05:09:56.705Z,1003.81
2018-12-17T05:10:56.663Z,1003.81
2018-12-17T05:11:56.618Z,1003.79
2018-12-17T05:12:56.537Z,1003.81
2018-12-17T05:13:56.520Z,1003.85
2018-12-17T05:14:56.420Z,1003.85
2018-12-17T05:15:56.364Z,1003.84
2018-12-17T05:16:56.317Z,1003.85
2018-12-17T05:17:56.251Z,1003.82
2018-12-17T05:18:56.195Z,1003.84
2018-12-17T05:19:56.162Z,1003.88
2018-12-17T05:20:56.083Z,1003.93
2018-12-17T05:21:56.020Z,1003.98
2018-12-17T05:22:55.981Z,1003.99
2018-12-17T05:23:55.909Z,1003.95
2018-12-17T05:24:55.874Z,1003.95
2018-12-17T05:25:55.796Z,1003.95
2018-12-17T05:26:55.738Z,1003.93
2018-12-17T05:27:55.679Z,1003.93
2018-12-17T05:28:55.625Z,1003.93
2018-12-17T05:29:55.594Z,1003.92
2018-12-17T05:30:55.509Z,1003.95
2018-12-17T05:31:55.454Z,1003.98
2018-12-17T05:32:55.401Z,1004.02
2018-12-17T05:33:55.343Z,1004.01
2018-12-17T05:34:55.315Z,1004.03
2018-12-17T05:35:55.231Z,1004.04
2018-12-17T05:36:55.181Z,1004.04
2018-12-17T05:37:55.109Z,1004.07
2018-12-17T05:38:55.054Z,1004.06
2018-12-17T05:39:55.025Z,1004.07
2018-12-17T05:40:54.953Z,1004.11
2018-12-17T05:41:54.885Z,1004.08
2018-12-17T05:42:54.829Z,1004.11
2018-12-17T05:43:54.778Z,1004.11
2018-12-17T05:44:54.742Z,1004.15
2018-12-17T05:45:54.659Z,1004.12
2018-12-17T05:46:54.604Z,1004.11
2018-12-17T05:47:54.549Z,1004.15
2018-12-17T05:48:54.492Z,1004.11
2018-12-17T05:49:54.470Z,1004.11
2018-12-17T05:50:54.374Z,1004.13
2018-12-17T05:51:54.317Z,1004.14
2018-12-17T05:52:54.259Z,1004.14
2018-12-17T05:53:54.203Z,1004.11
2018-12-17T05:54:54.171Z,1004.13
2018-12-17T05:55:54.092Z,1004.14
2018-12-17T05:56:54.041Z,1004.13
2018-12-17T05:57:53.973Z,1004.15
2018-12-17T05:58:53.941Z,1004.13
2018-12-17T05:59:53.884Z,1004.12
2018-12-17T06:00:53.802Z,1004.11
2018-12-17T06:01:53.747Z,1004.14
2018-12-17T06:02:53.692Z,1004.13
2018-12-17T06:03:53.637Z,1004.16
2018-12-17T06:04:53.601Z,1004.19
2018-12-17T06:05:53.521Z,1004.20
2018-12-17T06:06:53.462Z,1004.22
2018-12-17T06:07:53.406Z,1004.24
2018-12-17T06:08:53.352Z,1004.20
2018-12-17T06:09:53.316Z,1004.21
2018-12-17T06:10:53.237Z,1004.22
2018-12-17T06:11:53.183Z,1004.17
2018-12-17T06:12:53.122Z,1004.19
2018-12-17T06:13:53.066Z,1004.20
2018-12-17T06:14:53.061Z,1004.18
2018-12-17T06:15:52.960Z,1004.21
2018-12-17T06:16:52.896Z,1004.22
2018-12-17T06:17:52.845Z,1004.23
2018-12-17T06:18:52.788Z,1004.21
2018-12-17T06:19:52.727Z,1004.26
2018-12-17T06:20:52.701Z,1004.24
2018-12-17T06:21:52.612Z,1004.25
2018-12-17T06:22:52.564Z,1004.28
2018-12-17T06:23:52.503Z,1004.26
2018-12-17T06:24:52.446Z,1004.28
2018-12-17T06:25:52.413Z,1004.34
2018-12-17T06:26:52.344Z,1004.32
2018-12-17T06:27:52.270Z,1004.30
2018-12-17T06:28:52.216Z,1004.33
2018-12-17T06:29:52.166Z,1004.32
2018-12-17T06:30:52.129Z,1004.37
2018-12-17T06:31:52.046Z,1004.38
2018-12-17T06:32:51.991Z,1004.37
2018-12-17T06:33:51.934Z,1004.41
2018-12-17T06:34:51.876Z,1004.43
2018-12-17T06:35:51.922Z,1004.40
2018-12-17T06:36:51.764Z,1004.42
2018-12-17T06:37:51.707Z,1004.46
2018-12-17T06:38:51.650Z,1004.49
2018-12-17T06:39:51.594Z,1004.50
2018-12-17T06:40:51.639Z,1004.49
2018-12-17T06:41:51.479Z,1004.52
2018-12-17T06:42:51.424Z,1004.50
2018-12-17T06:43:51.369Z,1004.47
2018-12-17T06:44:51.309Z,1004.48
2018-12-17T06:45:51.286Z,1004.51
2018-12-17T06:46:51.199Z,1004.49
2018-12-17T06:47:51.137Z,1004.52
2018-12-17T06:48:51.083Z,1004.53
2018-12-17T06:49:51.032Z,1004.56
2018-12-17T06:50:50.989Z,1004.56
2018-12-17T06:51:50.918Z,1004.54
2018-12-17T06:52:50.859Z,1004.58
2018-12-17T06:53:50.803Z,1004.59
2018-12-17T06:54:54.826Z,1004.61
2018-12-17T06:55:50.712Z,1004.62
2018-12-17T06:56:50.628Z,1004.66
2018-12-17T06:57:50.577Z,1004.70
2018-12-17T06:58:50.602Z,1004.65
2018-12-17T06:59:50.463Z,1004.63
2018-12-17T07:00:50.431Z,1004.65
2018-12-17T07:01:50.361Z,1004.63
2018-12-17T07:02:50.292Z,1004.68
2018-12-17T07:03:50.229Z,1004.66
2018-12-17T07:04:50.178Z,1004.61
2018-12-17T07:05:50.158Z,1004.59
2018-12-17T07:06:50.089Z,1004.62
2018-12-17T07:07:50.007Z,1004.62
2018-12-17T07:08:50.743Z,1004.62
2018-12-17T07:09:49.894Z,1004.60
2018-12-17T07:10:49.838Z,1004.66
2018-12-17T07:11:49.809Z,1004.64
2018-12-17T07:12:49.726Z,1004.59
2018-12-17T07:13:49.668Z,1004.61
2018-12-17T07:14:49.611Z,1004.66
2018-12-17T07:15:49.560Z,1004.70
2018-12-17T07:16:49.521Z,1004.73
2018-12-17T07:17:49.433Z,1004.73
2018-12-17T07:18:49.385Z,1004.75
2018-12-17T07:19:49.326Z,1004.75
2018-12-17T07:20:49.263Z,1004.77
2018-12-17T07:21:49.248Z,1004.76
2018-12-17T07:22:49.156Z,1004.76
2018-12-17T07:23:49.099Z,1004.74
2018-12-17T07:24:49.042Z,1004.81
2018-12-17T07:25:48.986Z,1004.79
2018-12-17T07:26:48.959Z,1004.78
2018-12-17T07:27:48.871Z,1004.73
2018-12-17T07:28:48.815Z,1004.71
2018-12-17T07:29:49.962Z,1004.72
2018-12-17T07:30:48.700Z,1004.72
2018-12-17T07:31:48.682Z,1004.75
2018-12-17T07:32:48.590Z,1004.74
2018-12-17T07:33:48.534Z,1004.76
2018-12-17T07:34:48.499Z,1004.79
2018-12-17T07:35:48.421Z,1004.79
2018-12-17T07:36:48.384Z,1004.86
2018-12-17T07:37:48.304Z,1004.86
2018-12-17T07:38:48.246Z,1004.93
2018-12-17T07:39:48.190Z,1004.94
2018-12-17T07:40:48.142Z,1004.97
2018-12-17T07:41:48.103Z,1005.03
2018-12-17T07:42:48.022Z,1005.03
2018-12-17T07:43:47.963Z,1005.03
2018-12-17T07:44:47.907Z,1005.11
2018-12-17T07:45:47.854Z,1005.12
2018-12-17T07:46:47.818Z,1005.14
2018-12-17T07:47:47.738Z,1005.16
2018-12-17T07:48:47.681Z,1005.13
2018-12-17T07:49:47.630Z,1005.11
2018-12-17T07:50:47.567Z,1005.13
2018-12-17T07:51:47.532Z,1005.11
2018-12-17T07:52:47.455Z,1005.12
2018-12-17T07:53:47.398Z,1005.18
2018-12-17T07:54:47.341Z,1005.15
2018-12-17T07:55:47.288Z,1005.14
2018-12-17T07:56:47.249Z,1005.17
2018-12-17T07:57:47.174Z,1005.19
2018-12-17T07:58:47.114Z,1005.16
2018-12-17T07:59:47.055Z,1005.16
2018-12-17T08:00:47.003Z,1005.20
2018-12-17T08:01:47.003Z,1005.19
2018-12-17T08:02:46.929Z,1005.18
2018-12-17T08:03:46.832Z,1005.19
2018-12-17T08:04:46.769Z,1005.25
2018-12-17T08:05:46.713Z,1005.23
2018-12-17T08:06:46.658Z,1005.20
2018-12-17T08:07:46.629Z,1005.23
2018-12-17T08:08:46.545Z,1005.27
2018-12-17T08:09:46.492Z,1005.30
2018-12-17T08:10:46.429Z,1005.32
2018-12-17T08:11:46.374Z,1005.34
2018-12-17T08:12:46.343Z,1005.42
2018-12-17T08:13:46.261Z,1005.43
2018-12-17T08:14:46.203Z,1005.44
2018-12-17T08:15:46.148Z,1005.41
2018-12-17T08:16:46.089Z,1005.46
2018-12-17T08:17:46.058Z,1005.46
2018-12-17T08:18:45.974Z,1005.51
2018-12-17T08:19:45.927Z,1005.53
2018-12-17T08:20:45.863Z,1005.52
2018-12-17T08:21:45.807Z,1005.53
2018-12-17T08:22:45.772Z,1005.51
2018-12-17T08:23:45.692Z,1005.60
2018-12-17T08:24:45.637Z,1005.59
2018-12-17T08:25:45.583Z,1005.55
2018-12-17T08:26:45.525Z,1005.57
2018-12-17T08:27:45.492Z,1005.58
2018-12-17T08:28:45.404Z,1005.63
2018-12-17T08:29:45.402Z,1005.61
2018-12-17T08:30:45.300Z,1005.62
2018-12-17T08:31:45.243Z,1005.61
2018-12-17T08:32:45.212Z,1005.59
2018-12-17T08:33:45.128Z,1005.63
2018-12-17T08:34:45.071Z,1005.59
2018-12-17T08:35:45.017Z,1005.61
2018-12-17T08:36:44.962Z,1005.65
2018-12-17T08:37:44.930Z,1005.65
2018-12-17T08:38:44.845Z,1005.60
2018-12-17T08:39:44.787Z,1005.60
2018-12-17T08:40:44.731Z,1005.65
2018-12-17T08:41:44.676Z,1005.58
2018-12-17T08:42:44.643Z,1005.59
2018-12-17T08:43:44.562Z,1005.58
2018-12-17T08:44:44.501Z,1005.60
2018-12-17T08:45:44.462Z,1005.60
2018-12-17T08:46:44.396Z,1005.64
2018-12-17T08:47:44.368Z,1005.64
2018-12-17T08:48:44.279Z,1005.63
2018-12-17T08:49:44.226Z,1005.63
2018-12-17T08:50:44.173Z,1005.63
2018-12-17T08:51:44.113Z,1005.63
2018-12-17T08:52:44.100Z,1005.66
2018-12-17T08:53:43.998Z,1005.67
2018-12-17T08:54:43.938Z,1005.67
2018-12-17T08:55:43.889Z,1005.67
2018-12-17T08:56:43.826Z,1005.69
2018-12-17T08:57:43.765Z,1005.69
2018-12-17T08:58:43.747Z,1005.72
2018-12-17T08:59:43.660Z,1005.72
2018-12-17T09:00:43.602Z,1005.76
2018-12-17T09:01:43.550Z,1005.76
2018-12-17T09:02:43.489Z,1005.83
2018-12-17T09:03:43.470Z,1005.78
2018-12-17T09:04:43.375Z,1005.83
2018-12-17T09:05:43.318Z,1005.85
2018-12-17T09:06:43.260Z,1005.84
2018-12-17T09:07:43.204Z,1005.84
2018-12-17T09:08:43.176Z,1005.85
2018-12-17T09:09:43.093Z,1005.86
2018-12-17T09:10:43.045Z,1005.86
2018-12-17T09:11:42.977Z,1005.87
2018-12-17T09:12:42.923Z,1005.85
2018-12-17T09:13:42.887Z,1005.87
2018-12-17T09:14:42.811Z,1005.91
2018-12-17T09:15:42.748Z,1005.92
2018-12-17T09:16:42.697Z,1005.91
2018-12-17T09:17:42.642Z,1005.96
2018-12-17T09:18:42.609Z,1005.93
2018-12-17T09:19:42.527Z,1005.99
2018-12-17T09:20:42.471Z,1006.01
2018-12-17T09:21:42.414Z,1005.97
2018-12-17T09:22:42.357Z,1005.98
2018-12-17T09:23:42.325Z,1006.03
2018-12-17T09:24:42.245Z,1006.09
2018-12-17T09:25:42.189Z,1006.10
2018-12-17T09:26:42.135Z,1006.11
2018-12-17T09:27:42.075Z,1006.14
2018-12-17T09:28:42.042Z,1006.13
2018-12-17T09:29:41.961Z,1006.12
2018-12-17T09:30:41.907Z,1006.10
2018-12-17T09:31:41.858Z,1006.08
2018-12-17T09:32:41.795Z,1006.12
2018-12-17T09:33:41.761Z,1006.13
2018-12-17T09:34:41.679Z,1006.14
2018-12-17T09:35:41.627Z,1006.16
2018-12-17T09:36:41.566Z,1006.10
2018-12-17T09:37:41.509Z,1006.05
2018-12-17T09:38:41.477Z,1006.09
2018-12-17T09:39:41.403Z,1006.09
2018-12-17T09:40:41.345Z,1006.09
2018-12-17T09:41:41.285Z,1006.12
2018-12-17T09:42:41.233Z,1006.10
2018-12-17T09:43:41.203Z,1006.12
2018-12-17T09:44:41.118Z,1006.09
2018-12-17T09:45:41.064Z,1006.07
2018-12-17T09:46:41.007Z,1006.09
2018-12-17T09:47:40.952Z,1006.06
2018-12-17T09:48:40.933Z,1006.08
2018-12-17T09:49:40.837Z,1006.10
2018-12-17T09:50:40.781Z,1006.09
2018-12-17T09:51:40.721Z,1006.08
2018-12-17T09:52:40.677Z,1006.11
2018-12-17T09:53:40.614Z,1006.09
2018-12-17T09:54:40.580Z,1006.09
2018-12-17T09:55:40.497Z,1006.06
2018-12-17T09:56:40.458Z,1006.08
2018-12-17T09:57:40.388Z,1006.12
2018-12-17T09:58:40.331Z,1006.10
2018-12-17T09:59:40.299Z,1006.12
2018-12-17T10:00:40.222Z,1006.13
2018-12-17T10:01:40.165Z,1006.15
2018-12-17T10:02:40.116Z,1006.16
2018-12-17T10:03:41.782Z,1006.10
2018-12-17T10:04:40.004Z,1006.09
2018-12-17T10:05:39.940Z,1006.13
2018-12-17T10:06:39.878Z,1006.14
2018-12-17T10:07:39.827Z,1006.14
2018-12-17T10:08:39.767Z,1006.10
2018-12-17T10:09:39.735Z,1006.10
2018-12-17T10:10:39.656Z,1006.08
2018-12-17T10:11:39.600Z,1006.12
2018-12-17T10:12:39.548Z,1006.07
2018-12-17T10:13:39.490Z,1006.05
2018-12-17T10:14:39.473Z,1006.08
2018-12-17T10:15:39.380Z,1006.05
2018-12-17T10:16:39.329Z,1006.07
2018-12-17T10:17:39.268Z,1006.04
2018-12-17T10:18:39.214Z,1006.02
2018-12-17T10:19:39.181Z,1006.01
2018-12-17T10:20:39.098Z,1006.00
2018-12-17T10:21:39.044Z,1005.97
2018-12-17T10:22:38.987Z,1005.96
2018-12-17T10:23:38.935Z,1005.99
2018-12-17T10:24:38.900Z,1005.97
2018-12-17T10:25:38.825Z,1005.97
2018-12-17T10:26:38.770Z,1006.01
2018-12-17T10:27:38.715Z,1005.96
2018-12-17T10:28:38.651Z,1006.01
2018-12-17T10:29:38.622Z,1006.03
2018-12-17T10:30:38.540Z,1006.01
2018-12-17T10:31:38.485Z,1006.00
2018-12-17T10:32:38.430Z,1006.05
2018-12-17T10:33:38.374Z,1006.05
2018-12-17T10:34:38.347Z,1006.05
2018-12-17T10:35:38.263Z,1006.05
2018-12-17T10:36:38.208Z,1006.06
2018-12-17T10:37:38.157Z,1006.07
2018-12-17T10:38:38.121Z,1006.12
2018-12-17T10:39:38.043Z,1006.12
2018-12-17T10:40:38.011Z,1006.07
2018-12-17T10:41:37.922Z,1006.10
2018-12-17T10:42:37.873Z,1006.11
2018-12-17T10:43:37.817Z,1006.15
2018-12-17T10:44:37.761Z,1006.17
2018-12-17T10:45:37.729Z,1006.14
2018-12-17T10:46:37.657Z,1006.13
2018-12-17T10:47:37.594Z,1006.10
2018-12-17T10:48:37.540Z,1006.13
2018-12-17T10:49:37.484Z,1006.14
2018-12-17T10:50:37.447Z,1006.12
2018-12-17T10:51:37.370Z,1006.17
2018-12-17T10:52:37.315Z,1006.15
2018-12-17T10:53:37.257Z,1006.15
2018-12-17T10:54:37.202Z,1006.15
2018-12-17T10:55:37.170Z,1006.14
2018-12-17T10:56:37.107Z,1006.12
2018-12-17T10:57:37.035Z,1006.10
2018-12-17T10:58:36.981Z,1006.11
2018-12-17T10:59:36.925Z,1006.12
2018-12-17T11:00:39.510Z,1006.11
2018-12-17T11:01:36.825Z,1006.09
2018-12-17T11:02:36.755Z,1006.11
2018-12-17T11:03:36.699Z,1006.08
2018-12-17T11:04:36.644Z,1006.11
2018-12-17T11:05:36.612Z,1006.09
2018-12-17T11:06:36.533Z,1006.12
2018-12-17T11:07:36.478Z,1006.07
2018-12-17T11:08:36.419Z,1006.11
2018-12-17T11:09:36.379Z,1006.05
2018-12-17T11:10:36.333Z,1006.07
2018-12-17T11:11:36.252Z,1006.10
2018-12-17T11:12:36.207Z,1006.09
2018-12-17T11:13:36.147Z,1006.07
2018-12-17T11:14:36.084Z,1006.05
2018-12-17T11:15:36.059Z,1006.07
2018-12-17T11:16:35.975Z,1006.08
2018-12-17T11:17:35.923Z,1006.03
2018-12-17T11:18:35.861Z,1006.02
2018-12-17T11:19:35.806Z,1006.07
2018-12-17T11:20:35.774Z,1006.10
2018-12-17T11:21:35.694Z,1006.05
2018-12-17T11:22:35.645Z,1006.09
2018-12-17T11:23:35.579Z,1006.10
2018-12-17T11:24:36.605Z,1006.03
2018-12-17T11:25:35.497Z,1006.04
2018-12-17T11:26:35.413Z,1006.02
2018-12-17T11:27:35.360Z,1005.99
2018-12-17T11:28:35.304Z,1006.03
2018-12-17T11:29:35.242Z,1006.01
2018-12-17T11:30:35.212Z,1006.03
2018-12-17T11:31:35.140Z,1006.02
2018-12-17T11:32:35.077Z,1006.00
2018-12-17T11:33:35.024Z,1006.03
2018-12-17T11:34:34.966Z,1006.02
2018-12-17T11:35:34.931Z,1005.98
2018-12-17T11:36:34.851Z,1006.02
2018-12-17T11:37:34.796Z,1006.07
2018-12-17T11:38:34.740Z,1006.04
2018-12-17T11:39:34.690Z,1006.00
2018-12-17T11:40:34.675Z,1006.04
2018-12-17T11:41:34.570Z,1005.99
2018-12-17T11:42:34.518Z,1005.93
2018-12-17T11:43:34.459Z,1005.98
2018-12-17T11:44:34.413Z,1005.98
2018-12-17T11:45:34.348Z,1006.01
2018-12-17T11:46:34.318Z,1005.97
2018-12-17T11:47:34.237Z,1005.99
2018-12-17T11:48:34.178Z,1006.00
2018-12-17T11:49:34.124Z,1005.99
2018-12-17T11:50:34.055Z,1005.95
2018-12-17T11:51:34.043Z,1005.94
2018-12-17T11:52:33.956Z,1006.01
2018-12-17T11:53:33.901Z,1006.01
2018-12-17T11:54:33.850Z,1005.96
2018-12-17T11:55:33.786Z,1006.01
2018-12-17T11:56:33.750Z,1006.00
2018-12-17T11:57:33.675Z,1005.95
2018-12-17T11:58:33.624Z,1006.00
2018-12-17T11:59:33.575Z,1005.96
2018-12-17T12:00:33.510Z,1005.98
2018-12-17T12:01:33.477Z,1005.93
2018-12-17T12:02:33.393Z,1005.98
2018-12-17T12:03:33.339Z,1005.99
2018-12-17T12:04:33.285Z,1006.02